createdAt,value
2018-04-02T00:00:20.681Z,17.60
2018-04-02T00:01:20.680Z,17.30
2018-04-02T00:02:20.683Z,17.00
2018-04-02T00:03:20.728Z,17.60
2018-04-02T00:04:20.712Z,16.60
2018-04-02T00:05:20.725Z,17.90
2018-04-02T00:06:20.716Z,17.10
2018-04-02T00:07:20.710Z,17.80
2018-04-02T00:08:20.716Z,16.80
2018-04-02T00:09:20.721Z,17.60
2018-04-02T00:10:20.746Z,17.40
2018-04-02T00:11:20.737Z,16.70
2018-04-02T00:12:20.744Z,17.00
2018-04-02T00:13:20.753Z,17.30
2018-04-02T00:14:20.750Z,17.10
2018-04-02T00:15:20.773Z,17.10
2018-04-02T00:16:20.803Z,17.30
2018-04-02T00:17:20.770Z,18.10
2018-04-02T00:18:20.776Z,16.80
2018-04-02T00:19:20.798Z,16.60
2018-04-02T00:20:20.769Z,17.20
2018-04-02T00:21:20.809Z,17.10
2018-04-02T00:22:20.813Z,16.90
2018-04-02T00:23:20.783Z,17.00
2018-04-02T00:24:20.827Z,16.90
2018-04-02T00:25:20.800Z,17.50
2018-04-02T00:26:20.795Z,17.00
2018-04-02T00:27:20.809Z,17.40
2018-04-02T00:28:20.804Z,16.90
2018-04-02T00:29:20.815Z,17.40
2018-04-02T00:30:20.865Z,17.20
2018-04-02T00:31:20.839Z,17.10
2018-04-02T00:32:20.840Z,17.50
2018-04-02T00:33:20.858Z,17.20
2018-04-02T00:34:20.844Z,17.60
2018-04-02T00:35:20.846Z,17.20
2018-04-02T00:36:20.853Z,16.70
2018-04-02T00:37:20.889Z,17.40
2018-04-02T00:38:20.866Z,17.40
2018-04-02T00:39:20.874Z,17.50
2018-04-02T00:40:20.881Z,17.40
2018-04-02T00:41:20.873Z,16.30
2018-04-02T00:42:20.937Z,17.40
2018-04-02T00:43:20.916Z,17.80
2018-04-02T00:44:20.907Z,17.60
2018-04-02T00:45:20.947Z,17.70
2018-04-02T00:46:20.892Z,17.40
2018-04-02T00:47:20.931Z,16.30
2018-04-02T00:48:20.942Z,16.30
2018-04-02T00:49:20.983Z,16.60
2018-04-02T00:50:20.921Z,17.00
2018-04-02T00:51:20.917Z,17.50
2018-04-02T00:52:20.930Z,17.00
2018-04-02T00:53:20.926Z,17.10
2018-04-02T00:54:20.936Z,17.30
2018-04-02T00:55:21.004Z,17.10
2018-04-02T00:56:20.954Z,17.10
2018-04-02T00:57:20.955Z,15.80
2018-04-02T00:58:20.961Z,16.80
2018-04-02T00:59:21.006Z,16.10
2018-04-02T01:00:20.966Z,16.90
2018-04-02T01:01:20.972Z,15.80
2018-04-02T01:02:20.975Z,16.30
2018-04-02T01:03:20.992Z,16.60
2018-04-02T01:04:20.998Z,16.20
2018-04-02T01:05:21.075Z,16.60
2018-04-02T01:06:21.056Z,15.80
2018-04-02T01:07:21.006Z,17.20
2018-04-02T01:08:21.015Z,16.70
2018-04-02T01:09:21.019Z,16.10
2018-04-02T01:10:21.036Z,16.20
2018-04-02T01:11:21.028Z,15.50
2018-04-02T01:12:21.051Z,16.70
2018-04-02T01:13:21.062Z,17.20
2018-04-02T01:14:21.031Z,17.20
2018-04-02T01:15:21.041Z,15.60
2018-04-02T01:16:21.038Z,15.80
2018-04-02T01:17:21.047Z,16.80
2018-04-02T01:18:21.072Z,17.50
2018-04-02T01:19:21.091Z,15.80
2018-04-02T01:20:21.068Z,16.50
2018-04-02T01:21:21.320Z,16.30
2018-04-02T01:22:21.078Z,15.20
2018-04-02T01:23:21.109Z,17.20
2018-04-02T01:24:21.111Z,16.50
2018-04-02T01:25:21.106Z,16.50
2018-04-02T01:26:21.088Z,16.70
2018-04-02T01:27:21.141Z,16.80
2018-04-02T01:28:21.124Z,17.20
2018-04-02T01:29:21.110Z,16.80
2018-04-02T01:30:21.121Z,16.30
2018-04-02T01:31:21.128Z,16.50
2018-04-02T01:32:21.122Z,16.00
2018-04-02T01:33:21.157Z,17.00
2018-04-02T01:34:21.191Z,17.30
2018-04-02T01:35:21.169Z,17.00
2018-04-02T01:36:21.202Z,17.10
2018-04-02T01:37:21.158Z,16.20
2018-04-02T01:38:21.154Z,16.90
2018-04-02T01:39:21.156Z,17.30
2018-04-02T01:40:21.173Z,17.20
2018-04-02T01:41:21.185Z,16.90
2018-04-02T01:42:21.215Z,17.50
2018-04-02T01:43:21.206Z,18.00
2018-04-02T01:44:21.187Z,18.10
2018-04-02T01:45:21.246Z,18.40
2018-04-02T01:46:21.193Z,18.10
2018-04-02T01:47:21.192Z,18.50
2018-04-02T01:48:21.233Z,18.70
2018-04-02T01:49:21.244Z,18.50
2018-04-02T01:50:21.207Z,19.20
2018-04-02T01:51:21.209Z,18.50
2018-04-02T01:52:21.216Z,19.90
2018-04-02T01:53:21.230Z,18.80
2018-04-02T01:54:21.275Z,18.90
2018-04-02T01:55:21.235Z,18.60
2018-04-02T01:56:21.243Z,19.80
2018-04-02T01:57:21.248Z,19.80
2018-04-02T01:58:21.253Z,19.80
2018-04-02T01:59:21.257Z,20.00
2018-04-02T02:00:21.354Z,18.70
2018-04-02T02:01:21.263Z,19.60
2018-04-02T02:02:21.268Z,19.60
2018-04-02T02:03:21.306Z,20.20
2018-04-02T02:04:21.304Z,20.30
2018-04-02T02:05:21.307Z,19.60
2018-04-02T02:06:21.322Z,20.00
2018-04-02T02:07:21.320Z,20.10
2018-04-02T02:08:21.312Z,20.30
2018-04-02T02:09:21.318Z,20.00
2018-04-02T02:10:21.324Z,20.10
2018-04-02T02:11:21.332Z,20.70
2018-04-02T02:12:21.353Z,20.90
2018-04-02T02:13:21.320Z,20.20
2018-04-02T02:14:21.342Z,20.40
2018-04-02T02:15:21.393Z,20.10
2018-04-02T02:16:21.332Z,19.80
2018-04-02T02:17:21.382Z,21.20
2018-04-02T02:18:21.346Z,20.50
2018-04-02T02:19:21.350Z,20.50
2018-04-02T02:20:21.362Z,21.20
2018-04-02T02:21:21.408Z,20.40
2018-04-02T02:22:21.366Z,20.70
2018-04-02T02:23:21.388Z,20.90
2018-04-02T02:24:21.373Z,20.60
2018-04-02T02:25:21.381Z,21.00
2018-04-02T02:26:21.381Z,20.40
2018-04-02T02:27:21.414Z,21.10
2018-04-02T02:28:21.420Z,21.10
2018-04-02T02:29:21.405Z,21.70
2018-04-02T02:30:21.435Z,20.70
2018-04-02T02:31:21.413Z,20.60
2018-04-02T02:32:21.556Z,20.90
2018-04-02T02:33:21.467Z,22.30
2018-04-02T02:34:21.448Z,21.40
2018-04-02T02:35:21.441Z,22.50
2018-04-02T02:36:21.434Z,21.90
2018-04-02T02:37:21.452Z,21.40
2018-04-02T02:38:21.459Z,21.70
2018-04-02T02:39:21.521Z,22.10
2018-04-02T02:40:21.460Z,22.40
2018-04-02T02:41:21.454Z,22.70
2018-04-02T02:42:21.490Z,21.10
2018-04-02T02:43:21.462Z,21.80
2018-04-02T02:44:21.471Z,22.80
2018-04-02T02:45:21.503Z,21.40
2018-04-02T02:46:21.501Z,21.90
2018-04-02T02:47:21.536Z,22.20
2018-04-02T02:48:21.496Z,22.10
2018-04-02T02:49:21.505Z,22.20
2018-04-02T02:50:21.505Z,21.80
2018-04-02T02:51:21.510Z,22.30
2018-04-02T02:52:21.514Z,21.50
2018-04-02T02:53:21.584Z,22.30
2018-04-02T02:54:21.527Z,22.20
2018-04-02T02:55:21.534Z,22.80
2018-04-02T02:56:21.541Z,22.90
2018-04-02T02:57:21.560Z,23.00
2018-04-02T02:58:21.545Z,22.90
2018-04-02T02:59:21.601Z,26.00
2018-04-02T03:00:21.609Z,23.60
2018-04-02T03:01:21.557Z,23.70
2018-04-02T03:02:21.564Z,24.20
2018-04-02T03:03:21.567Z,23.50
2018-04-02T03:04:21.579Z,24.50
2018-04-02T03:05:21.575Z,24.00
2018-04-02T03:06:21.636Z,24.30
2018-04-02T03:07:22.359Z,24.50
2018-04-02T03:08:21.643Z,24.00
2018-04-02T03:09:21.590Z,25.10
2018-04-02T03:10:21.597Z,25.30
2018-04-02T03:11:21.625Z,25.10
2018-04-02T03:12:21.645Z,26.10
2018-04-02T03:13:21.663Z,26.00
2018-04-02T03:14:21.635Z,25.90
2018-04-02T03:15:21.620Z,25.80
2018-04-02T03:16:21.622Z,25.50
2018-04-02T03:17:21.631Z,26.80
2018-04-02T03:18:21.673Z,25.50
2018-04-02T03:19:21.676Z,26.10
2018-04-02T03:20:21.689Z,26.60
2018-04-02T03:21:21.643Z,26.60
2018-04-02T03:22:21.695Z,27.10
2018-04-02T03:23:21.655Z,26.00
2018-04-02T03:24:21.668Z,26.40
2018-04-02T03:25:21.687Z,27.50
2018-04-02T03:26:21.676Z,27.20
2018-04-02T03:27:21.679Z,26.80
2018-04-02T03:28:21.733Z,26.60
2018-04-02T03:29:21.688Z,28.00
2018-04-02T03:30:21.695Z,27.00
2018-04-02T03:31:21.702Z,27.50
2018-04-02T03:32:21.725Z,27.40
2018-04-02T03:33:21.729Z,27.80
2018-04-02T03:34:21.766Z,28.30
2018-04-02T03:35:21.715Z,28.40
2018-04-02T03:36:21.723Z,27.20
2018-04-02T03:37:21.803Z,27.60
2018-04-02T03:38:21.729Z,27.50
2018-04-02T03:39:21.748Z,26.70
2018-04-02T03:40:21.796Z,26.60
2018-04-02T03:41:21.747Z,26.90
2018-04-02T03:42:21.754Z,27.30
2018-04-02T03:43:21.756Z,28.30
2018-04-02T03:44:21.755Z,27.40
2018-04-02T03:45:21.789Z,29.00
2018-04-02T03:46:21.812Z,27.60
2018-04-02T03:47:21.775Z,29.20
2018-04-02T03:48:21.780Z,27.90
2018-04-02T03:49:21.801Z,27.80
2018-04-02T03:50:21.814Z,28.50
2018-04-02T03:51:21.822Z,26.90
2018-04-02T03:52:21.818Z,28.20
2018-04-02T03:53:21.829Z,27.60
2018-04-02T03:54:21.802Z,28.20
2018-04-02T03:55:21.848Z,27.40
2018-04-02T03:56:21.874Z,27.90
2018-04-02T03:57:21.823Z,27.70
2018-04-02T03:58:21.847Z,27.20
2018-04-02T03:59:21.840Z,28.50
2018-04-02T04:00:21.908Z,27.70
2018-04-02T04:01:21.849Z,27.50
2018-04-02T04:02:21.841Z,28.60
2018-04-02T04:03:21.847Z,28.90
2018-04-02T04:04:21.885Z,29.30
2018-04-02T04:05:21.861Z,27.90
2018-04-02T04:06:21.906Z,28.60
2018-04-02T04:07:21.865Z,27.90
2018-04-02T04:08:21.868Z,28.40
2018-04-02T04:09:21.908Z,28.20
2018-04-02T04:10:21.875Z,28.20
2018-04-02T04:11:21.915Z,28.60
2018-04-02T04:12:21.940Z,28.70
2018-04-02T04:13:21.892Z,28.20
2018-04-02T04:14:21.910Z,29.90
2018-04-02T04:15:21.902Z,28.90
2018-04-02T04:16:21.907Z,29.80
2018-04-02T04:17:21.915Z,29.20
2018-04-02T04:18:21.974Z,29.40
2018-04-02T04:19:21.934Z,29.60
2018-04-02T04:20:21.938Z,29.70
2018-04-02T04:21:21.944Z,29.30
2018-04-02T04:22:21.941Z,29.40
2018-04-02T04:23:21.998Z,29.00
2018-04-02T04:24:21.954Z,28.90
2018-04-02T04:25:21.957Z,28.70
2018-04-02T04:26:21.976Z,29.30
2018-04-02T04:27:21.965Z,29.20
2018-04-02T04:28:21.974Z,28.40
2018-04-02T04:29:21.994Z,30.10
2018-04-02T04:30:21.979Z,28.70
2018-04-02T04:31:22.020Z,29.50
2018-04-02T04:32:22.010Z,29.80
2018-04-02T04:33:21.986Z,28.90
2018-04-02T04:34:21.996Z,29.00
2018-04-02T04:35:21.996Z,29.90
2018-04-02T04:36:22.007Z,29.40
2018-04-02T04:37:22.059Z,29.30
2018-04-02T04:38:22.009Z,29.70
2018-04-02T04:39:22.046Z,29.40
2018-04-02T04:40:22.024Z,30.30
2018-04-02T04:41:22.030Z,30.20
2018-04-02T04:42:22.039Z,30.50
2018-04-02T04:43:22.089Z,29.60
2018-04-02T04:44:22.040Z,29.40
2018-04-02T04:45:22.060Z,28.20
2018-04-02T04:46:22.052Z,29.30
2018-04-02T04:47:22.068Z,28.40
2018-04-02T04:48:22.066Z,28.50
2018-04-02T04:49:22.093Z,29.00
2018-04-02T04:50:22.106Z,29.40
2018-04-02T04:51:22.082Z,29.40
2018-04-02T04:52:22.170Z,27.90
2018-04-02T04:53:22.113Z,28.80
2018-04-02T04:54:22.082Z,28.60
2018-04-02T04:55:22.126Z,29.30
2018-04-02T04:56:22.096Z,30.30
2018-04-02T04:57:22.141Z,29.20
2018-04-02T04:58:22.139Z,29.60
2018-04-02T04:59:22.130Z,29.70
2018-04-02T05:00:22.118Z,28.40
2018-04-02T05:01:22.119Z,29.10
2018-04-02T05:02:22.126Z,30.20
2018-04-02T05:03:22.198Z,29.70
2018-04-02T05:04:22.162Z,30.30
2018-04-02T05:05:22.135Z,29.90
2018-04-02T05:06:22.153Z,28.80
2018-04-02T05:07:22.149Z,29.50
2018-04-02T05:08:22.264Z,30.00
2018-04-02T05:09:22.196Z,30.20
2018-04-02T05:10:22.162Z,30.10
2018-04-02T05:11:22.188Z,29.80
2018-04-02T05:12:22.231Z,30.20
2018-04-02T05:13:22.179Z,29.40
2018-04-02T05:14:22.207Z,30.10
2018-04-02T05:15:22.187Z,30.60
2018-04-02T05:16:22.195Z,30.70
2018-04-02T05:17:22.212Z,29.20
2018-04-02T05:18:22.224Z,29.20
2018-04-02T05:19:22.229Z,28.90
2018-04-02T05:20:22.216Z,29.20
2018-04-02T05:21:22.234Z,29.30
2018-04-02T05:22:22.223Z,30.30
2018-04-02T05:23:22.250Z,29.10
2018-04-02T05:24:22.240Z,30.70
2018-04-02T05:25:22.265Z,30.50
2018-04-02T05:26:22.245Z,28.80
2018-04-02T05:27:22.288Z,30.00
2018-04-02T05:28:22.254Z,29.30
2018-04-02T05:29:22.258Z,30.80
2018-04-02T05:30:22.258Z,29.90
2018-04-02T05:31:22.263Z,30.80
2018-04-02T05:32:22.302Z,30.50
2018-04-02T05:33:22.316Z,30.50
2018-04-02T05:34:22.288Z,30.00
2018-04-02T05:35:22.285Z,29.00
2018-04-02T05:36:22.318Z,30.00
2018-04-02T05:37:22.301Z,29.90
2018-04-02T05:38:22.302Z,30.20
2018-04-02T05:39:22.358Z,29.50
2018-04-02T05:40:22.306Z,29.60
2018-04-02T05:41:22.321Z,29.60
2018-04-02T05:42:22.312Z,30.30
2018-04-02T05:43:22.357Z,30.00
2018-04-02T05:44:22.325Z,30.10
2018-04-02T05:45:22.369Z,31.40
2018-04-02T05:46:22.333Z,29.90
2018-04-02T05:47:22.376Z,30.60
2018-04-02T05:48:22.436Z,29.90
2018-04-02T05:49:22.363Z,30.40
2018-04-02T05:50:22.366Z,31.40
2018-04-02T05:51:22.356Z,31.20
2018-04-02T05:52:22.382Z,32.30
2018-04-02T05:53:22.408Z,32.70
2018-04-02T05:54:22.375Z,31.40
2018-04-02T05:55:22.381Z,31.20
2018-04-02T05:56:22.424Z,32.40
2018-04-02T05:57:22.416Z,32.50
2018-04-02T05:58:22.394Z,32.00
2018-04-02T05:59:22.445Z,32.10
2018-04-02T06:00:22.401Z,30.90
2018-04-02T06:01:22.407Z,31.20
2018-04-02T06:02:22.414Z,32.60
2018-04-02T06:03:22.424Z,35.40
2018-04-02T06:04:22.439Z,34.60
2018-04-02T06:05:22.488Z,32.20
2018-04-02T06:06:22.434Z,31.50
2018-04-02T06:07:22.442Z,31.60
2018-04-02T06:08:22.450Z,32.90
2018-04-02T06:09:22.509Z,31.10
2018-04-02T06:10:22.464Z,32.00
2018-04-02T06:11:22.497Z,30.80
2018-04-02T06:12:22.480Z,30.70
2018-04-02T06:13:22.492Z,30.00
2018-04-02T06:14:22.483Z,29.90
2018-04-02T06:15:22.501Z,30.40
2018-04-02T06:16:22.514Z,30.50
2018-04-02T06:17:22.561Z,29.40
2018-04-02T06:18:22.513Z,29.90
2018-04-02T06:19:22.537Z,30.90
2018-04-02T06:20:22.517Z,30.40
2018-04-02T06:21:22.522Z,33.00
2018-04-02T06:22:22.545Z,31.20
2018-04-02T06:23:22.530Z,31.60
2018-04-02T06:24:22.570Z,31.10
2018-04-02T06:25:22.557Z,30.10
2018-04-02T06:26:22.557Z,30.10
2018-04-02T06:27:22.579Z,28.90
2018-04-02T06:28:22.546Z,30.20
2018-04-02T06:29:22.557Z,28.60
2018-04-02T06:30:22.610Z,30.00
2018-04-02T06:31:22.565Z,28.80
2018-04-02T06:32:22.569Z,28.50
2018-04-02T06:33:22.641Z,27.60
2018-04-02T06:34:22.582Z,29.00
2018-04-02T06:35:22.585Z,27.60
2018-04-02T06:36:22.675Z,28.40
2018-04-02T06:37:22.599Z,28.30
2018-04-02T06:38:22.610Z,27.70
2018-04-02T06:39:22.897Z,26.60
2018-04-02T06:40:22.686Z,27.30
2018-04-02T06:41:22.623Z,28.10
2018-04-02T06:42:22.654Z,28.70
2018-04-02T06:43:22.636Z,27.90
2018-04-02T06:44:22.642Z,28.70
2018-04-02T06:45:22.656Z,28.40
2018-04-02T06:46:22.679Z,28.90
2018-04-02T06:47:22.650Z,27.70
2018-04-02T06:48:22.693Z,27.40
2018-04-02T06:49:22.669Z,27.70
2018-04-02T06:50:22.693Z,26.70
2018-04-02T06:51:22.674Z,26.50
2018-04-02T06:52:22.675Z,26.40
2018-04-02T06:53:22.687Z,26.70
2018-04-02T06:54:22.713Z,27.00
2018-04-02T06:55:22.708Z,26.30
2018-04-02T06:56:22.727Z,26.30
2018-04-02T06:57:22.748Z,26.40
2018-04-02T06:58:22.719Z,26.90
2018-04-02T06:59:22.763Z,27.00
2018-04-02T07:00:22.722Z,27.20
2018-04-02T07:01:22.725Z,26.60
2018-04-02T07:02:22.765Z,25.90
2018-04-02T07:03:22.756Z,25.90
2018-04-02T07:04:22.742Z,25.40
2018-04-02T07:05:22.846Z,24.90
2018-04-02T07:06:22.767Z,25.50
2018-04-02T07:07:22.759Z,25.00
2018-04-02T07:08:22.788Z,24.10
2018-04-02T07:09:22.769Z,25.10
2018-04-02T07:10:22.785Z,25.10
2018-04-02T07:11:22.834Z,26.10
2018-04-02T07:12:22.795Z,26.10
2018-04-02T07:13:22.799Z,26.00
2018-04-02T07:14:22.877Z,27.30
2018-04-02T07:15:23.246Z,26.90
2018-04-02T07:16:22.813Z,26.30
2018-04-02T07:17:22.871Z,26.00
2018-04-02T07:18:22.829Z,24.50
2018-04-02T07:19:22.829Z,25.10
2018-04-02T07:20:22.833Z,24.70
2018-04-02T07:21:22.834Z,24.30
2018-04-02T07:22:22.955Z,24.40
2018-04-02T07:23:22.886Z,24.10
2018-04-02T07:24:22.861Z,24.20
2018-04-02T07:25:22.874Z,24.40
2018-04-02T07:26:22.959Z,23.50
2018-04-02T07:27:22.869Z,23.40
2018-04-02T07:28:22.885Z,24.20
2018-04-02T07:29:22.906Z,24.50
2018-04-02T07:30:22.937Z,24.80
2018-04-02T07:31:22.894Z,23.70
2018-04-02T07:32:22.968Z,24.00
2018-04-02T07:33:22.915Z,23.70
2018-04-02T07:34:22.917Z,23.80
2018-04-02T07:35:22.927Z,23.10
2018-04-02T07:36:22.929Z,23.30
2018-04-02T07:37:22.933Z,22.70
2018-04-02T07:38:22.958Z,24.30
2018-04-02T07:39:22.944Z,24.20
2018-04-02T07:40:22.986Z,24.00
2018-04-02T07:41:23.002Z,23.20
2018-04-02T07:42:22.973Z,22.00
2018-04-02T07:43:22.964Z,23.00
2018-04-02T07:44:22.997Z,22.70
2018-04-02T07:45:22.969Z,23.10
2018-04-02T07:46:22.984Z,24.10
2018-04-02T07:47:23.073Z,23.30
2018-04-02T07:48:22.994Z,23.60
2018-04-02T07:49:22.999Z,23.00
2018-04-02T07:50:23.007Z,22.80
2018-04-02T07:51:23.044Z,22.50
2018-04-02T07:52:23.052Z,23.10
2018-04-02T07:53:23.018Z,22.10
2018-04-02T07:54:23.054Z,22.70
2018-04-02T07:55:23.059Z,22.80
2018-04-02T07:56:23.030Z,22.60
2018-04-02T07:57:23.039Z,22.10
2018-04-02T07:58:23.071Z,22.20
2018-04-02T07:59:23.078Z,22.40
2018-04-02T08:00:23.057Z,21.90
2018-04-02T08:01:23.073Z,22.40
2018-04-02T08:02:23.101Z,22.80
2018-04-02T08:03:23.071Z,21.90
2018-04-02T08:04:23.077Z,22.30
2018-04-02T08:05:23.102Z,21.30
2018-04-02T08:06:23.117Z,20.30
2018-04-02T08:07:23.221Z,21.30
2018-04-02T08:08:23.104Z,21.70
2018-04-02T08:09:23.108Z,22.00
2018-04-02T08:10:23.164Z,21.10
2018-04-02T08:11:23.120Z,21.10
2018-04-02T08:12:23.158Z,20.40
2018-04-02T08:13:23.134Z,20.90
2018-04-02T08:14:23.139Z,21.60
2018-04-02T08:15:23.143Z,21.30
2018-04-02T08:16:23.199Z,21.90
2018-04-02T08:17:23.206Z,21.40
2018-04-02T08:18:23.170Z,20.80
2018-04-02T08:19:23.222Z,21.40
2018-04-02T08:20:23.179Z,20.70
2018-04-02T08:21:23.184Z,21.20
2018-04-02T08:22:23.186Z,19.90
2018-04-02T08:23:23.220Z,20.80
2018-04-02T08:24:23.196Z,19.60
2018-04-02T08:25:23.257Z,19.10
2018-04-02T08:26:23.225Z,19.10
2018-04-02T08:27:23.204Z,19.60
2018-04-02T08:28:23.286Z,18.50
2018-04-02T08:29:23.222Z,18.70
2018-04-02T08:30:23.244Z,19.10
2018-04-02T08:31:23.233Z,19.20
2018-04-02T08:32:23.269Z,18.60
2018-04-02T08:33:23.244Z,19.10
2018-04-02T08:34:23.286Z,18.90
2018-04-02T08:35:23.259Z,19.20
2018-04-02T08:36:23.266Z,18.50
2018-04-02T08:37:23.335Z,18.10
2018-04-02T08:38:23.280Z,18.50
2018-04-02T08:39:23.298Z,18.00
2018-04-02T08:40:23.331Z,17.50
2018-04-02T08:41:23.285Z,17.50
2018-04-02T08:42:23.295Z,16.80
2018-04-02T08:43:23.316Z,17.50
2018-04-02T08:44:23.335Z,15.90
2018-04-02T08:45:23.323Z,15.70
2018-04-02T08:46:23.355Z,16.60
2018-04-02T08:47:23.329Z,15.80
2018-04-02T08:48:23.324Z,16.20
2018-04-02T08:49:23.332Z,15.90
2018-04-02T08:50:23.387Z,15.50
2018-04-02T08:51:23.397Z,15.70
2018-04-02T08:52:23.351Z,19.60
2018-04-02T08:53:23.356Z,16.80
2018-04-02T08:54:23.371Z,14.40
2018-04-02T08:55:23.396Z,14.70
2018-04-02T08:56:23.371Z,14.60
2018-04-02T08:57:23.420Z,14.40
2018-04-02T08:58:23.397Z,14.40
2018-04-02T08:59:23.400Z,14.70
2018-04-02T09:00:23.402Z,13.60
2018-04-02T09:01:23.412Z,14.60
2018-04-02T09:02:23.424Z,14.10
2018-04-02T09:03:23.446Z,14.60
2018-04-02T09:04:23.478Z,13.90
2018-04-02T09:05:23.433Z,14.00
2018-04-02T09:06:23.435Z,13.70
2018-04-02T09:07:23.448Z,13.80
2018-04-02T09:08:23.466Z,13.30
2018-04-02T09:09:23.480Z,13.20
2018-04-02T09:10:23.490Z,13.80
2018-04-02T09:11:23.520Z,13.10
2018-04-02T09:12:23.476Z,13.90
2018-04-02T09:13:23.487Z,13.30
2018-04-02T09:14:23.483Z,13.70
2018-04-02T09:15:23.488Z,13.50
2018-04-02T09:16:23.497Z,13.70
2018-04-02T09:17:23.536Z,13.70
2018-04-02T09:18:23.545Z,12.90
2018-04-02T09:19:23.514Z,12.20
2018-04-02T09:20:23.546Z,13.20
2018-04-02T09:21:23.527Z,12.90
2018-04-02T09:22:23.571Z,12.50
2018-04-02T09:23:23.568Z,12.40
2018-04-02T09:24:23.544Z,13.20
2018-04-02T09:25:23.555Z,13.20
2018-04-02T09:26:23.563Z,12.90
2018-04-02T09:27:23.586Z,14.00
2018-04-02T09:28:23.601Z,15.10
2018-04-02T09:29:23.580Z,13.50
2018-04-02T09:30:23.645Z,13.90
2018-04-02T09:31:23.591Z,15.80
2018-04-02T09:32:23.599Z,13.40
2018-04-02T09:33:23.643Z,12.70
2018-04-02T09:34:23.633Z,12.90
2018-04-02T09:35:23.618Z,13.50
2018-04-02T09:36:23.662Z,13.00
2018-04-02T09:37:23.629Z,13.20
2018-04-02T09:38:23.637Z,13.60
2018-04-02T09:39:23.640Z,13.20
2018-04-02T09:40:23.648Z,13.00
2018-04-02T09:41:23.665Z,12.80
2018-04-02T09:42:23.686Z,11.60
2018-04-02T09:43:23.674Z,12.00
2018-04-02T09:44:23.677Z,12.10
2018-04-02T09:45:23.679Z,12.10
2018-04-02T09:46:23.719Z,11.90
2018-04-02T09:47:23.697Z,12.60
2018-04-02T09:48:23.719Z,12.10
2018-04-02T09:49:23.720Z,12.20
2018-04-02T09:50:23.766Z,11.90
2018-04-02T09:51:23.743Z,11.20
2018-04-02T09:52:23.746Z,10.50
2018-04-02T09:53:23.741Z,11.00
2018-04-02T09:54:23.743Z,10.90
2018-04-02T09:55:23.751Z,10.30
2018-04-02T09:56:23.779Z,11.00
2018-04-02T09:57:23.763Z,10.70
2018-04-02T09:58:23.770Z,11.40
2018-04-02T09:59:23.790Z,11.90
2018-04-02T10:00:23.782Z,11.30
2018-04-02T10:01:23.846Z,11.80
2018-04-02T10:02:23.789Z,11.20
2018-04-02T10:03:23.797Z,10.80
2018-04-02T10:04:23.856Z,11.00
2018-04-02T10:05:23.813Z,10.80
2018-04-02T10:06:23.828Z,10.70
2018-04-02T10:07:23.821Z,10.60
2018-04-02T10:08:23.828Z,10.70
2018-04-02T10:09:23.834Z,10.80
2018-04-02T10:10:23.955Z,10.90
2018-04-02T10:11:23.857Z,9.40
2018-04-02T10:12:23.863Z,9.60
2018-04-02T10:13:23.878Z,10.20
2018-04-02T10:14:23.877Z,9.90
2018-04-02T10:15:23.910Z,9.70
2018-04-02T10:16:23.938Z,9.10
2018-04-02T10:17:23.916Z,9.00
2018-04-02T10:18:23.896Z,8.30
2018-04-02T10:19:23.915Z,8.30
2018-04-02T10:20:23.916Z,8.90
2018-04-02T10:21:23.918Z,9.30
2018-04-02T10:22:23.950Z,8.40
2018-04-02T10:23:23.994Z,8.50
2018-04-02T10:24:23.950Z,9.40
2018-04-02T10:25:23.942Z,9.20
2018-04-02T10:26:23.949Z,10.00
2018-04-02T10:27:23.959Z,9.50
2018-04-02T10:28:23.967Z,9.70
2018-04-02T10:29:24.027Z,8.60
2018-04-02T10:30:23.981Z,7.90
2018-04-02T10:31:24.000Z,8.40
2018-04-02T10:32:23.984Z,8.50
2018-04-02T10:33:23.995Z,9.00
2018-04-02T10:34:24.031Z,8.90
2018-04-02T10:35:24.006Z,9.20
2018-04-02T10:36:24.019Z,9.80
2018-04-02T10:37:24.038Z,8.70
2018-04-02T10:38:24.041Z,8.80
2018-04-02T10:39:24.034Z,9.00
2018-04-02T10:40:24.089Z,9.00
2018-04-02T10:41:24.048Z,8.70
2018-04-02T10:42:24.094Z,9.50
2018-04-02T10:43:24.081Z,8.50
2018-04-02T10:44:24.072Z,8.90
2018-04-02T10:45:24.078Z,9.90
2018-04-02T10:46:24.129Z,9.50
2018-04-02T10:47:24.084Z,9.50
2018-04-02T10:48:24.101Z,9.90
2018-04-02T10:49:24.128Z,9.20
2018-04-02T10:50:24.104Z,9.00
2018-04-02T10:51:24.132Z,9.20
2018-04-02T10:52:24.151Z,9.40
2018-04-02T10:53:24.126Z,9.40
2018-04-02T10:54:24.142Z,10.00
2018-04-02T10:55:24.171Z,9.60
2018-04-02T10:56:24.154Z,9.40
2018-04-02T10:57:24.180Z,9.20
2018-04-02T10:58:24.297Z,8.70
2018-04-02T10:59:24.167Z,8.50
2018-04-02T11:00:24.197Z,8.40
2018-04-02T11:01:24.182Z,8.50
2018-04-02T11:02:24.187Z,9.40
2018-04-02T11:03:24.227Z,9.30
2018-04-02T11:04:24.278Z,8.90
2018-04-02T11:05:24.204Z,8.90
2018-04-02T11:06:24.216Z,9.90
2018-04-02T11:07:24.234Z,8.90
2018-04-02T11:08:24.274Z,10.90
2018-04-02T11:09:24.287Z,10.50
2018-04-02T11:10:24.243Z,9.40
2018-04-02T11:11:24.250Z,8.80
2018-04-02T11:12:24.252Z,8.70
2018-04-02T11:13:24.258Z,8.70
2018-04-02T11:14:24.332Z,8.90
2018-04-02T11:15:24.272Z,8.60
2018-04-02T11:16:24.285Z,9.00
2018-04-02T11:17:24.286Z,8.00
2018-04-02T11:18:24.297Z,8.10
2018-04-02T11:19:24.306Z,8.20
2018-04-02T11:20:24.343Z,8.20
2018-04-02T11:21:24.320Z,8.00
2018-04-02T11:22:24.329Z,8.30
2018-04-02T11:23:24.347Z,7.60
2018-04-02T11:24:24.345Z,8.30
2018-04-02T11:25:24.394Z,8.30
2018-04-02T11:26:24.412Z,8.00
2018-04-02T11:27:24.359Z,8.10
2018-04-02T11:28:24.368Z,8.50
2018-04-02T11:29:24.377Z,8.10
2018-04-02T11:30:24.391Z,8.20
2018-04-02T11:31:24.394Z,8.10
2018-04-02T11:32:24.449Z,8.00
2018-04-02T11:33:24.440Z,8.50
2018-04-02T11:34:24.420Z,8.30
2018-04-02T11:35:24.421Z,8.00
2018-04-02T11:36:24.450Z,8.40
2018-04-02T11:37:24.437Z,7.80
2018-04-02T11:38:24.481Z,8.50
2018-04-02T11:39:24.459Z,7.90
2018-04-02T11:40:24.480Z,8.50
2018-04-02T11:41:24.479Z,8.50
2018-04-02T11:42:24.518Z,7.90
2018-04-02T11:43:24.476Z,7.80
2018-04-02T11:44:24.489Z,8.50
2018-04-02T11:45:24.496Z,8.20
2018-04-02T11:46:24.545Z,8.00
2018-04-02T11:47:24.507Z,7.60
2018-04-02T11:48:24.542Z,8.10
2018-04-02T11:49:24.518Z,8.00
2018-04-02T11:50:24.542Z,8.00
2018-04-02T11:51:24.541Z,7.90
2018-04-02T11:52:24.542Z,8.10
2018-04-02T11:53:24.591Z,8.60
2018-04-02T11:54:24.564Z,8.70
2018-04-02T11:55:24.559Z,7.70
2018-04-02T11:56:24.565Z,8.30
2018-04-02T11:57:24.612Z,8.20
2018-04-02T11:58:24.582Z,8.20
2018-04-02T11:59:24.628Z,7.90
2018-04-02T12:00:24.649Z,8.70
2018-04-02T12:01:24.604Z,8.00
2018-04-02T12:02:24.610Z,7.80
2018-04-02T12:03:24.617Z,8.60
2018-04-02T12:04:24.675Z,8.60
2018-04-02T12:05:24.639Z,8.70
2018-04-02T12:06:24.684Z,8.80
2018-04-02T12:07:24.661Z,7.90
2018-04-02T12:08:24.679Z,8.40
2018-04-02T12:09:24.685Z,8.30
2018-04-02T12:10:24.670Z,8.80
2018-04-02T12:11:24.682Z,8.00
2018-04-02T12:12:24.723Z,7.80
2018-04-02T12:13:24.693Z,8.30
2018-04-02T12:14:24.745Z,8.90
2018-04-02T12:15:24.732Z,7.90
2018-04-02T12:16:24.720Z,8.20
2018-04-02T12:17:24.726Z,8.40
2018-04-02T12:18:24.729Z,8.00
2018-04-02T12:19:24.758Z,8.10
2018-04-02T12:20:24.784Z,8.60
2018-04-02T12:21:24.758Z,9.30
2018-04-02T12:22:24.786Z,8.40
2018-04-02T12:23:24.767Z,7.60
2018-04-02T12:24:24.787Z,8.10
2018-04-02T12:25:24.790Z,9.80
2018-04-02T12:26:24.839Z,9.60
2018-04-02T12:27:24.795Z,9.60
2018-04-02T12:28:24.809Z,8.40
2018-04-02T12:29:24.832Z,7.70
2018-04-02T12:30:24.823Z,7.90
2018-04-02T12:31:24.836Z,7.80
2018-04-02T12:32:24.861Z,8.40
2018-04-02T12:33:24.859Z,9.50
2018-04-02T12:34:24.907Z,8.80
2018-04-02T12:35:24.862Z,8.30
2018-04-02T12:36:24.865Z,7.90
2018-04-02T12:37:24.944Z,7.10
2018-04-02T12:38:24.915Z,6.90
2018-04-02T12:39:24.893Z,7.30
2018-04-02T12:40:24.970Z,7.30
2018-04-02T12:41:24.916Z,7.80
2018-04-02T12:42:24.924Z,7.30
2018-04-02T12:43:24.933Z,7.00
2018-04-02T12:44:24.950Z,7.60
2018-04-02T12:45:24.946Z,8.00
2018-04-02T12:46:24.980Z,9.00
2018-04-02T12:47:24.960Z,8.00
2018-04-02T12:48:25.008Z,7.90
2018-04-02T12:49:24.971Z,7.50
2018-04-02T12:50:24.981Z,7.80
2018-04-02T12:51:25.031Z,7.40
2018-04-02T12:52:24.991Z,7.60
2018-04-02T12:53:25.011Z,7.90
2018-04-02T12:54:25.008Z,7.50
2018-04-02T12:55:25.054Z,7.70
2018-04-02T12:56:25.061Z,7.90
2018-04-02T12:57:25.030Z,8.30